Time;durP1;ratioP1;P1;durP2;ratioP2;P2;SDS_P1;SDS_P2;PMS_P1;PMS_P2;Temp;Humidity;BMP_temperature;BMP_pressure;BME280_temperature;BME280_humidity;BME280_pressure;Samples;Min_cycle;Max_cycle;Signal;HPM_P1;HPM_P2
2021/05/25 04:50:13;;;;;;;1.90;1.50;;;8.90;99.90;;;;;;6013802;23;20018;31
2021/05/25 04:52:42;;;;;;;4.78;1.40;;;8.90;99.90;;;;;;4948006;29;19930;-66
2021/05/25 04:55:10;;;;;;;6.90;1.70;;;8.90;99.90;;;;;;4951593;28;20047;-65
2021/05/25 04:57:37;;;;;;;2.65;1.58;;;8.80;99.90;;;;;;4947639;28;20043;-65
2021/05/25 05:00:06;;;;;;;3.40;1.50;;;8.80;99.90;;;;;;4939894;28;20047;-66
2021/05/25 05:02:33;;;;;;;4.07;1.40;;;8.80;99.90;;;;;;4941217;28;20055;-65
2021/05/25 05:05:00;;;;;;;2.25;1.45;;;8.90;99.90;;;;;;4944113;29;20403;-65
2021/05/25 05:07:27;;;;;;;3.20;1.50;;;9.00;99.90;;;;;;4973423;23;20507;-71
2021/05/25 05:09:54;;;;;;;5.10;1.70;;;8.90;99.90;;;;;;4947516;29;20558;-70
2021/05/25 05:12:20;;;;;;;3.85;1.48;;;8.90;99.90;;;;;;4951447;28;20047;-71
2021/05/25 05:14:47;;;;;;;2.42;1.75;;;8.90;99.90;;;;;;4950267;29;20067;-70
2021/05/25 05:17:14;;;;;;;4.25;1.63;;;9.00;99.90;;;;;;4939545;28;20046;-70
2021/05/25 05:19:41;;;;;;;4.10;1.30;;;8.90;99.90;;;;;;4930752;29;20071;-70
2021/05/25 05:22:07;;;;;;;6.63;1.40;;;9.00;99.90;;;;;;4932248;29;20058;-68
2021/05/25 05:24:34;;;;;;;7.13;1.77;;;9.30;99.90;;;;;;4931990;29;20068;-69
2021/05/25 05:27:02;;;;;;;2.72;1.55;;;9.20;99.90;;;;;;4930198;29;20044;-71
2021/05/25 05:29:28;;;;;;;4.22;1.27;;;9.10;99.90;;;;;;4932972;29;20479;-70
2021/05/25 05:31:55;;;;;;;;;;;9.20;99.90;;;;;;4932131;29;20055;-70
2021/05/25 05:34:21;;;;;;;3.97;1.00;;;9.30;99.90;;;;;;4931868;29;19954;-70
2021/05/25 05:36:48;;;;;;;2.10;1.00;;;9.40;99.90;;;;;;4931924;29;20054;-70
2021/05/25 05:39:14;;;;;;;4.28;1.10;;;9.20;99.90;;;;;;4932480;29;20095;-71
2021/05/25 05:41:41;;;;;;;;;;;9.30;99.90;;;;;;4932486;29;20047;-71
2021/05/25 05:44:08;;;;;;;5.03;1.75;;;9.20;99.90;;;;;;4921760;29;20460;-70
2021/05/25 05:46:35;;;;;;;2.88;1.00;;;9.20;99.90;;;;;;4929928;29;20044;-70
2021/05/25 05:49:02;;;;;;;3.08;1.27;;;9.20;99.90;;;;;;4931231;29;20040;-70
2021/05/25 05:51:30;;;;;;;6.50;1.35;;;9.10;99.90;;;;;;4921464;29;20044;-70
2021/05/25 05:53:57;;;;;;;5.32;1.38;;;9.20;99.90;;;;;;4930872;29;20135;-70
2021/05/25 05:56:24;;;;;;;3.13;1.33;;;9.10;99.90;;;;;;4931851;29;20512;-70
2021/05/25 05:58:50;;;;;;;;;;;9.00;99.90;;;;;;4933731;29;20456;-69
2021/05/25 06:01:18;;;;;;;2.85;0.90;;;9.10;99.90;;;;;;4935094;29;19923;-69
2021/05/25 06:03:45;;;;;;;3.13;0.82;;;9.10;99.90;;;;;;4935640;29;20456;-70
2021/05/25 06:06:12;;;;;;;4.43;1.23;;;9.10;99.90;;;;;;4935423;29;20098;-70
2021/05/25 06:08:40;;;;;;;6.32;1.05;;;9.20;99.90;;;;;;4936717;29;20040;-71
2021/05/25 06:11:07;;;;;;;7.57;1.25;;;9.30;99.90;;;;;;4935770;29;20084;-70
2021/05/25 06:13:34;;;;;;;3.03;1.13;;;9.60;99.90;;;;;;4936021;29;20614;-68
2021/05/25 06:16:02;;;;;;;2.13;0.70;;;9.90;99.90;;;;;;4936097;29;20463;-70
2021/05/25 06:18:30;;;;;;;2.28;0.77;;;9.90;99.90;;;;;;4935645;29;20489;-71
2021/05/25 06:20:57;;;;;;;1.40;0.60;;;10.10;99.90;;;;;;4934448;29;20099;-68
2021/05/25 06:23:24;;;;;;;8.57;1.08;;;10.50;99.90;;;;;;4932662;29;20138;-71
2021/05/25 06:25:51;;;;;;;1.45;0.68;;;10.70;99.90;;;;;;4935613;29;20051;-70
2021/05/25 06:28:17;;;;;;;1.55;0.65;;;11.10;99.90;;;;;;4934982;29;20122;-71
2021/05/25 06:30:44;;;;;;;;;;;11.70;99.90;;;;;;4936020;29;20047;-70
2021/05/25 06:33:11;;;;;;;1.73;0.90;;;12.30;99.90;;;;;;4934936;29;20363;-70
2021/05/25 06:35:38;;;;;;;3.63;0.65;;;11.70;99.90;;;;;;4935657;29;20051;-70
2021/05/25 06:38:06;;;;;;;1.35;0.50;;;11.30;99.90;;;;;;4933430;29;20043;-69
2021/05/25 06:40:33;;;;;;;5.30;0.40;;;11.10;99.90;;;;;;4934937;29;20127;-69
2021/05/25 06:43:00;;;;;;;1.98;0.47;;;11.10;99.90;;;;;;4935373;29;20051;-69
2021/05/25 06:45:27;;;;;;;1.05;0.40;;;11.00;99.90;;;;;;4935460;29;20047;-69
2021/05/25 06:47:54;;;;;;;1.83;0.55;;;11.40;99.90;;;;;;4935211;29;20071;-69
2021/05/25 06:50:21;;;;;;;2.70;0.60;;;11.10;99.90;;;;;;4935654;29;20047;-69
2021/05/25 06:52:48;;;;;;;1.83;0.65;;;11.10;99.90;;;;;;4935154;29;20047;-69
2021/05/25 06:55:16;;;;;;;2.42;0.95;;;11.20;99.90;;;;;;4935486;29;20472;-70
2021/05/25 06:57:42;;;;;;;2.58;0.57;;;11.20;99.90;;;;;;4935376;29;20420;-70
2021/05/25 07:00:11;;;;;;;1.63;0.50;;;11.20;99.90;;;;;;4935370;29;20086;-70
2021/05/25 07:02:38;;;;;;;0.50;0.50;;;10.80;99.90;;;;;;4933557;29;20122;-69
2021/05/25 07:05:07;;;;;;;2.08;0.35;;;10.80;99.90;;;;;;4935260;29;20055;-69
2021/05/25 07:07:34;;;;;;;1.90;0.40;;;10.90;99.90;;;;;;4930706;29;20916;-70
2021/05/25 07:10:03;;;;;;;0.85;0.60;;;11.00;99.90;;;;;;4915749;29;20044;-69
2021/05/25 07:12:29;;;;;;;2.17;0.40;;;11.10;99.90;;;;;;4914659;29;20300;-70
2021/05/25 07:14:57;;;;;;;0.73;0.35;;;11.10;99.90;;;;;;4915326;29;20072;-69
2021/05/25 07:17:23;;;;;;;4.13;0.50;;;11.30;99.90;;;;;;4915261;29;20139;-69
2021/05/25 07:19:50;;;;;;;;;;;11.00;99.90;;;;;;4916728;29;20123;-69
2021/05/25 07:22:16;;;;;;;3.83;0.40;;;11.20;99.90;;;;;;4915729;29;20375;-68
2021/05/25 07:24:44;;;;;;;2.90;0.63;;;11.00;99.90;;;;;;4915695;29;20044;-68
2021/05/25 07:27:11;;;;;;;4.32;0.40;;;10.90;99.90;;;;;;4916131;29;20048;-69
2021/05/25 07:29:38;;;;;;;1.50;0.55;;;10.60;99.90;;;;;;4916189;29;20048;-68
2021/05/25 07:32:06;;;;;;;2.15;0.40;;;10.70;99.90;;;;;;4914664;29;20052;-68
2021/05/25 07:34:32;;;;;;;2.75;0.50;;;10.30;99.90;;;;;;4916070;29;20079;-68
2021/05/25 07:36:59;;;;;;;;;;;10.50;99.90;;;;;;4916205;29;20048;-68
2021/05/25 07:39:26;;;;;;;3.20;0.57;;;10.50;99.90;;;;;;4914404;29;19923;-68
2021/05/25 07:41:52;;;;;;;1.40;0.65;;;10.70;99.90;;;;;;4915271;29;20044;-68
2021/05/25 07:44:20;;;;;;;0.57;0.45;;;10.60;99.90;;;;;;4915722;29;20052;-69
2021/05/25 07:46:46;;;;;;;0.90;0.50;;;10.70;99.90;;;;;;4915074;29;20071;-68
2021/05/25 07:49:13;;;;;;;0.77;0.25;;;10.60;99.90;;;;;;4914983;29;20067;-69
2021/05/25 07:51:39;;;;;;;0.60;0.30;;;10.50;99.90;;;;;;4914958;29;20107;-67
2021/05/25 07:54:06;;;;;;;2.00;0.50;;;10.40;99.90;;;;;;4914841;29;20086;-68
2021/05/25 07:56:33;;;;;;;1.55;0.20;;;10.30;99.90;;;;;;4915190;29;20044;-68
2021/05/25 07:58:59;;;;;;;0.45;0.20;;;10.30;99.90;;;;;;4914989;29;20138;-69
2021/05/25 08:01:27;;;;;;;1.95;0.20;;;10.20;99.90;;;;;;4915349;29;20508;-69
2021/05/25 08:03:54;;;;;;;0.40;0.20;;;10.20;99.90;;;;;;4914110;29;20048;-68
2021/05/25 08:06:20;;;;;;;2.55;0.50;;;10.10;99.90;;;;;;4915462;29;20040;-69
2021/05/25 08:08:47;;;;;;;1.65;0.20;;;10.20;99.90;;;;;;4927301;29;20048;-69
2021/05/25 08:11:13;;;;;;;2.03;0.40;;;10.20;99.90;;;;;;4934236;29;20051;-70
2021/05/25 08:13:40;;;;;;;;;;;10.40;99.90;;;;;;4932453;29;20512;-68
2021/05/25 08:16:08;;;;;;;2.10;0.50;;;10.50;99.90;;;;;;4933213;29;20379;-69
2021/05/25 08:18:47;;;;;;;3.28;0.40;;;10.40;99.90;;;;;;4930782;29;20341;-69
2021/05/25 08:21:14;;;;;;;0.95;0.40;;;10.60;99.90;;;;;;4932698;29;20067;-68
2021/05/25 08:23:42;;;;;;;;;;;10.80;99.90;;;;;;4933168;29;20055;-69
2021/05/25 08:26:09;;;;;;;2.38;0.30;;;10.80;99.90;;;;;;4933236;29;19952;-70
2021/05/25 08:28:35;;;;;;;0.63;0.30;;;10.60;99.90;;;;;;4933380;29;20048;-70
2021/05/25 08:31:02;;;;;;;;;;;10.60;99.90;;;;;;4935228;29;20146;-68
2021/05/25 08:33:29;;;;;;;0.38;0.38;;;10.40;99.90;;;;;;4933351;29;20169;-68
2021/05/25 08:35:56;;;;;;;;;;;10.40;99.90;;;;;;4933387;29;20054;-70
2021/05/25 08:38:23;;;;;;;1.27;0.53;;;10.50;99.90;;;;;;4934701;29;20369;-69
2021/05/25 08:40:51;;;;;;;1.65;0.17;;;10.90;99.90;;;;;;4933754;29;20075;-70
2021/05/25 08:43:18;;;;;;;1.23;0.40;;;11.80;99.90;;;;;;4933719;29;20043;-69
2021/05/25 08:45:45;;;;;;;0.65;0.35;;;12.10;99.90;;;;;;4933186;29;20044;-69
2021/05/25 08:48:11;;;;;;;0.98;0.38;;;11.70;99.90;;;;;;4933947;29;20047;-70
2021/05/25 08:50:38;;;;;;;;;;;11.90;99.90;;;;;;4932425;29;20692;-69
2021/05/25 08:53:07;;;;;;;2.05;0.40;;;11.70;99.90;;;;;;4931782;29;19942;-69
2021/05/25 08:55:36;;;;;;;0.47;0.22;;;12.00;99.90;;;;;;4933230;29;20136;-68
2021/05/25 08:58:05;;;;;;;1.40;0.30;;;11.80;99.90;;;;;;4932998;29;20164;-69
2021/05/25 09:00:32;;;;;;;1.05;0.20;;;12.30;99.90;;;;;;4931899;29;20051;-69
2021/05/25 09:02:59;;;;;;;0.22;0.20;;;12.80;99.90;;;;;;4933519;29;20036;-69
2021/05/25 09:05:26;;;;;;;;;;;13.00;99.90;;;;;;4934523;29;20415;-69
2021/05/25 09:07:54;;;;;;;0.35;0.17;;;13.10;99.90;;;;;;4933827;29;19929;-69
2021/05/25 09:10:33;;;;;;;0.32;0.10;;;12.60;99.90;;;;;;4935685;29;20057;-69
2021/05/25 09:13:01;;;;;;;0.85;0.20;;;12.40;99.90;;;;;;4933375;29;20062;-70
2021/05/25 09:15:34;;;;;;;0.75;0.30;;;12.60;99.90;;;;;;4932281;29;20044;-68
2021/05/25 09:18:05;;;;;;;1.35;0.30;;;12.60;99.90;;;;;;4932734;29;20055;-69
2021/05/25 09:20:55;;;;;;;2.55;0.32;;;13.50;99.90;;;;;;4932880;29;20497;-68
2021/05/25 09:23:24;;;;;;;2.33;0.40;;;13.30;99.90;;;;;;4931492;29;20040;-69
2021/05/25 09:25:58;;;;;;;2.13;0.40;;;13.30;99.90;;;;;;4931251;29;20071;-68
2021/05/25 09:28:25;;;;;;;5.78;0.50;;;12.90;99.90;;;;;;4932684;29;20307;-69
2021/05/25 09:30:52;;;;;;;1.00;0.38;;;12.60;99.90;;;;;;4931356;29;20047;-68
2021/05/25 09:33:21;;;;;;;3.67;0.38;;;12.60;99.90;;;;;;4934784;29;20595;-68
2021/05/25 09:35:49;;;;;;;0.50;0.30;;;13.00;99.90;;;;;;4936341;29;20122;-68
2021/05/25 09:38:17;;;;;;;3.00;0.28;;;12.80;99.90;;;;;;4936515;29;20043;-69
2021/05/25 09:40:46;;;;;;;0.15;0.10;;;12.80;99.90;;;;;;4936710;29;20123;-69
2021/05/25 09:43:16;;;;;;;1.02;0.15;;;13.00;99.90;;;;;;4935074;29;20051;-69
2021/05/25 09:46:00;;;;;;;0.75;0.22;;;13.70;99.90;;;;;;4936757;29;20522;-68
2021/05/25 09:48:28;;;;;;;0.20;0.17;;;13.80;99.90;;;;;;4936722;29;20059;-69
2021/05/25 09:50:55;;;;;;;1.40;0.20;;;13.80;99.90;;;;;;4934246;29;20067;-68
2021/05/25 09:53:23;;;;;;;0.98;0.32;;;13.30;99.90;;;;;;4933535;29;20447;-69
2021/05/25 09:55:53;;;;;;;0.88;0.35;;;13.30;99.90;;;;;;4931765;29;20416;-69
2021/05/25 09:58:23;;;;;;;1.13;0.28;;;13.00;99.90;;;;;;4932847;29;20043;-69
2021/05/25 10:00:50;;;;;;;1.05;0.20;;;12.70;99.90;;;;;;4934109;29;20134;-68
2021/05/25 10:03:19;;;;;;;0.63;0.20;;;12.30;99.90;;;;;;4934020;29;20054;-69
2021/05/25 10:05:49;;;;;;;2.17;0.20;;;12.50;99.90;;;;;;4953241;28;20047;-68
2021/05/25 10:08:18;;;;;;;1.17;0.30;;;12.60;99.90;;;;;;4936796;29;20059;-68
2021/05/25 10:10:45;;;;;;;0.70;0.10;;;13.30;99.90;;;;;;4935818;29;20453;-68
2021/05/25 10:13:13;;;;;;;0.40;0.40;;;13.40;99.90;;;;;;4934659;29;20040;-69
2021/05/25 10:15:42;;;;;;;0.20;0.15;;;13.40;99.90;;;;;;4929615;29;20114;-68
2021/05/25 10:20:51;;;;;;;0.50;0.17;;;13.30;99.90;;;;;;4948311;29;20126;-68
2021/05/25 10:23:17;;;;;;;;;;;12.90;99.90;;;;;;4936242;29;20126;-68
2021/05/25 10:25:47;;;;;;;0.63;0.22;;;12.50;99.90;;;;;;4935245;29;20107;-68
2021/05/25 10:28:13;;;;;;;0.73;0.20;;;12.40;99.90;;;;;;4935492;29;20047;-68
2021/05/25 10:30:43;;;;;;;;;;;12.40;99.90;;;;;;4935680;29;20055;-69
2021/05/25 10:33:33;;;;;;;0.68;0.30;;;12.30;99.90;;;;;;4943743;29;19934;-68
2021/05/25 10:36:03;;;;;;;0.13;0.10;;;12.30;99.90;;;;;;4952979;28;20062;-68
2021/05/25 10:38:31;;;;;;;0.68;0.15;;;12.30;99.90;;;;;;4935147;29;20219;-68
2021/05/25 10:41:00;;;;;;;0.88;0.25;;;12.10;99.90;;;;;;4935146;29;20068;-68
2021/05/25 10:43:44;;;;;;;1.55;0.32;;;12.10;99.90;;;;;;4935174;29;20377;-68
2021/05/25 10:46:24;;;;;;;3.70;0.50;;;12.00;99.90;;;;;;4934085;29;20042;-69
2021/05/25 10:49:06;;;;;;;1.88;0.30;;;12.10;99.90;;;;;;4935160;29;20052;-68
2021/05/25 10:52:13;;;;;;;0.57;0.28;;;12.10;99.90;;;;;;4935049;29;20043;-68
2021/05/25 10:54:51;;;;;;;1.13;0.20;;;12.00;99.90;;;;;;4933637;29;20054;-68
2021/05/25 10:57:36;;;;;;;0.73;0.10;;;12.20;99.90;;;;;;4934867;29;20048;-68
2021/05/25 11:00:09;;;;;;;0.88;0.38;;;12.20;99.90;;;;;;4934904;29;20065;-68
2021/05/25 11:02:51;;;;;;;4.28;0.50;;;12.30;99.90;;;;;;4935019;29;20048;-68
2021/05/25 11:05:51;;;;;;;0.50;0.32;;;12.60;99.90;;;;;;4934873;29;20044;-68
2021/05/25 11:08:24;;;;;;;1.25;0.32;;;12.60;99.90;;;;;;4970723;23;20055;-66
2021/05/25 11:10:53;;;;;;;0.40;0.40;;;12.80;99.90;;;;;;4947259;28;20047;-65
2021/05/25 11:13:25;;;;;;;2.25;0.30;;;13.10;99.90;;;;;;4938655;29;20102;-66
2021/05/25 11:16:06;;;;;;;0.22;0.20;;;13.10;99.90;;;;;;4953515;29;20105;-67
2021/05/25 11:18:36;;;;;;;2.50;0.55;;;13.20;99.90;;;;;;4936630;29;20504;-65
2021/05/25 11:21:15;;;;;;;0.65;0.40;;;13.90;99.90;;;;;;4933567;29;20048;-66
2021/05/25 11:23:44;;;;;;;0.82;0.40;;;13.80;99.90;;;;;;4933447;29;20291;-66
2021/05/25 11:26:32;;;;;;;0.13;0.13;;;14.10;99.90;;;;;;4943588;29;20043;-66
2021/05/25 11:29:19;;;;;;;0.68;0.10;;;13.90;99.90;;;;;;4953308;28;20512;-68
2021/05/25 11:31:45;;;;;;;2.13;0.43;;;12.90;99.90;;;;;;4953456;29;20538;-67
2021/05/25 11:34:14;;;;;;;1.35;0.40;;;12.90;99.90;;;;;;4953421;28;20138;-68
2021/05/25 11:36:41;;;;;;;3.72;0.75;;;12.80;99.90;;;;;;4929076;29;20048;-69
2021/05/25 11:39:09;;;;;;;0.75;0.28;;;12.90;99.90;;;;;;4918409;29;20040;-69
2021/05/25 11:41:37;;;;;;;0.70;0.30;;;13.00;99.90;;;;;;4917589;29;20532;-67
2021/05/25 11:44:06;;;;;;;8.15;0.80;;;13.20;99.90;;;;;;4915603;29;20397;-67
2021/05/25 11:46:43;;;;;;;3.13;0.50;;;13.20;99.90;;;;;;4914162;29;20044;-68
2021/05/25 11:49:11;;;;;;;0.28;0.25;;;14.10;99.90;;;;;;4919037;29;20048;-66
2021/05/25 11:51:40;;;;;;;3.60;0.57;;;14.70;99.90;;;;;;4920437;29;20389;-66
2021/05/25 11:54:12;;;;;;;4.28;0.60;;;14.60;99.90;;;;;;4921860;29;20050;-66
2021/05/25 11:56:43;;;;;;;1.00;0.63;;;14.60;99.90;;;;;;4932486;28;20048;-67
2021/05/25 11:59:18;;;;;;;4.22;0.50;;;15.00;99.90;;;;;;4932668;29;20039;-67
2021/05/25 12:01:47;;;;;;;1.05;0.40;;;15.20;99.90;;;;;;4914856;29;20051;-65
2021/05/25 12:04:15;;;;;;;1.55;0.32;;;15.10;99.90;;;;;;4928913;29;20044;-66
2021/05/25 12:06:54;;;;;;;0.35;0.30;;;15.30;99.90;;;;;;4933429;29;20044;-65
2021/05/25 12:09:26;;;;;;;2.17;0.57;;;14.90;99.90;;;;;;4933587;29;20051;-67
2021/05/25 12:11:57;;;;;;;2.05;0.60;;;14.60;99.90;;;;;;4923455;29;20043;-67
2021/05/25 12:14:32;;;;;;;2.30;0.43;;;14.30;99.90;;;;;;4933704;29;20090;-67
2021/05/25 12:17:00;;;;;;;3.75;0.70;;;14.10;99.90;;;;;;4932186;29;20142;-67
2021/05/25 12:19:27;;;;;;;1.73;0.52;;;14.00;99.90;;;;;;4933626;29;20051;-67
2021/05/25 12:22:02;;;;;;;0.68;0.50;;;14.00;99.90;;;;;;4933534;29;20048;-67
2021/05/25 12:24:34;;;;;;;3.50;0.55;;;14.00;99.90;;;;;;4932090;29;20142;-67
2021/05/25 12:27:01;;;;;;;5.00;0.60;;;14.00;99.90;;;;;;4932708;29;20040;-67
2021/05/25 12:29:29;;;;;;;1.38;0.88;;;13.60;99.90;;;;;;4914793;29;20048;-67
2021/05/25 12:31:56;;;;;;;3.65;1.00;;;13.50;99.90;;;;;;4913266;29;20456;-67
2021/05/25 12:34:23;;;;;;;1.15;0.60;;;13.70;99.90;;;;;;4912998;29;20087;-67
2021/05/25 12:36:58;;;;;;;2.50;0.75;;;13.70;99.90;;;;;;4914308;29;20531;-67
2021/05/25 12:39:36;;;;;;;4.55;0.80;;;14.10;99.90;;;;;;4914511;29;20052;-66
2021/05/25 12:42:18;;;;;;;6.25;0.50;;;14.00;99.90;;;;;;4930788;29;20079;-67
2021/05/25 12:44:45;;;;;;;2.88;0.80;;;14.00;99.90;;;;;;4926677;29;20501;-68
2021/05/25 12:47:14;;;;;;;3.97;0.80;;;14.10;99.90;;;;;;4919767;29;20044;-68
2021/05/25 12:49:46;;;;;;;1.45;0.60;;;14.20;99.90;;;;;;4931017;29;20048;-68
2021/05/25 12:52:20;;;;;;;2.53;0.70;;;14.10;99.90;;;;;;4922566;29;20043;-68
2021/05/25 12:54:56;;;;;;;3.00;0.90;;;14.00;99.90;;;;;;4929628;29;20048;-67
2021/05/25 12:57:25;;;;;;;3.10;1.00;;;14.10;99.90;;;;;;4924142;29;20051;-67
2021/05/25 12:59:59;;;;;;;3.92;1.13;;;14.20;99.90;;;;;;4914408;29;20067;-68
2021/05/25 13:02:43;;;;;;;2.53;0.65;;;14.40;99.90;;;;;;4922916;29;20048;-67
2021/05/25 13:05:12;;;;;;;3.45;1.02;;;14.00;99.90;;;;;;4912185;29;20102;-67
2021/05/25 13:07:50;;;;;;;3.63;0.93;;;14.00;99.90;;;;;;4916966;29;20050;-68
2021/05/25 13:10:24;;;;;;;2.25;0.85;;;14.20;99.90;;;;;;4913989;29;20171;-65
2021/05/25 13:12:51;;;;;;;4.63;1.13;;;14.40;99.90;;;;;;4923520;29;20059;-65
2021/05/25 13:15:17;;;;;;;3.45;1.20;;;14.60;99.90;;;;;;4931824;29;20040;-65
2021/05/25 13:17:54;;;;;;;5.35;0.93;;;14.40;99.90;;;;;;4928786;29;20036;-65
2021/05/25 13:20:23;;;;;;;2.38;0.82;;;14.10;99.90;;;;;;4923598;29;20074;-65
2021/05/25 13:22:50;;;;;;;4.10;1.15;;;13.90;99.90;;;;;;4930192;29;20055;-67
2021/05/25 13:25:18;;;;;;;4.38;1.17;;;13.80;99.90;;;;;;4918447;29;20044;-67
2021/05/25 13:27:52;;;;;;;7.15;1.45;;;13.70;99.90;;;;;;4931616;29;20044;-67
2021/05/25 13:30:40;;;;;;;1.88;1.10;;;13.70;99.90;;;;;;4924578;29;20555;-64
2021/05/25 13:33:06;;;;;;;;;;;13.60;99.90;;;;;;4929788;29;20055;-66
2021/05/25 13:35:33;;;;;;;2.65;0.85;;;13.50;99.90;;;;;;4927340;29;20306;-66
2021/05/25 13:38:02;;;;;;;1.88;0.90;;;13.70;99.90;;;;;;4913322;29;20074;-65
2021/05/25 13:40:29;;;;;;;2.42;0.85;;;13.80;99.90;;;;;;4929575;29;20375;-66
2021/05/25 13:42:56;;;;;;;2.05;0.90;;;13.80;99.90;;;;;;4917629;29;20054;-66
2021/05/25 13:45:23;;;;;;;4.88;1.48;;;13.70;99.90;;;;;;4928362;29;20047;-66
2021/05/25 13:47:51;;;;;;;1.77;1.00;;;13.70;99.90;;;;;;4917838;29;20506;-66
2021/05/25 13:50:25;;;;;;;8.05;1.85;;;13.60;99.90;;;;;;4916156;29;20040;-66
2021/05/25 13:52:54;;;;;;;5.45;1.10;;;13.40;99.90;;;;;;4926156;29;20052;-65
2021/05/25 13:55:26;;;;;;;5.10;1.48;;;13.20;99.90;;;;;;4917749;29;20059;-66
2021/05/25 13:57:52;;;;;;;8.43;1.70;;;12.90;99.90;;;;;;4914325;29;20449;-69
2021/05/25 14:00:32;;;;;;;;;;;11.70;99.90;;;;;;4916078;29;20508;-67
2021/05/25 14:02:58;;;;;;;4.35;0.90;;;10.10;99.90;;;;;;4926192;29;19930;-67
2021/05/25 14:05:25;;;;;;;1.92;0.70;;;9.70;99.90;;;;;;4933049;29;20047;-68
2021/05/25 14:07:53;;;;;;;2.30;0.73;;;9.30;99.90;;;;;;4933244;29;20521;-68
2021/05/25 14:10:21;;;;;;;4.22;0.80;;;9.60;99.90;;;;;;4932872;29;20071;-68
2021/05/25 14:12:47;;;;;;;4.22;0.95;;;9.80;99.90;;;;;;4933146;29;20048;-66
2021/05/25 14:15:15;;;;;;;4.00;0.93;;;10.10;99.90;;;;;;4925484;29;20390;-65
2021/05/25 14:17:42;;;;;;;2.25;1.15;;;10.30;99.90;;;;;;4927090;29;20043;-67
2021/05/25 14:20:10;;;;;;;3.47;0.93;;;10.50;99.90;;;;;;4917654;29;20080;-66
2021/05/25 14:22:36;;;;;;;3.63;1.08;;;10.60;99.90;;;;;;4919953;29;20044;-67
2021/05/25 14:25:03;;;;;;;1.27;0.57;;;10.50;99.90;;;;;;4936198;29;20047;-65
2021/05/25 14:27:30;;;;;;;1.55;0.73;;;10.70;99.90;;;;;;4934173;29;20086;-65
2021/05/25 14:29:57;;;;;;;3.92;1.13;;;11.00;99.90;;;;;;4935697;29;20056;-65
2021/05/25 14:32:23;;;;;;;1.73;0.80;;;11.20;99.90;;;;;;4934817;29;20118;-65
2021/05/25 14:34:51;;;;;;;1.38;0.70;;;11.20;99.90;;;;;;4935479;29;20573;-65
2021/05/25 14:37:17;;;;;;;4.00;1.00;;;11.30;99.90;;;;;;4917032;29;20055;-65
2021/05/25 14:39:44;;;;;;;2.58;1.00;;;11.50;99.90;;;;;;4916634;29;20541;-66
2021/05/25 14:42:11;;;;;;;4.60;1.17;;;11.80;99.90;;;;;;4925977;29;20050;-65
2021/05/25 14:44:37;;;;;;;15.45;1.10;;;12.20;99.90;;;;;;4932124;29;20055;-66
2021/05/25 14:47:04;;;;;;;5.90;0.90;;;12.60;99.90;;;;;;4934869;29;20567;-66
2021/05/25 14:49:31;;;;;;;3.15;1.45;;;13.00;99.90;;;;;;4934000;29;20043;-66
2021/05/25 14:51:59;;;;;;;2.67;1.02;;;12.90;99.90;;;;;;4924675;29;20091;-65
2021/05/25 14:54:26;;;;;;;4.63;1.38;;;13.10;99.90;;;;;;4915949;29;20183;-65
2021/05/25 14:56:57;;;;;;;;;;;13.30;99.90;;;;;;4916540;29;20063;-65
2021/05/25 14:59:24;;;;;;;1.77;0.73;;;13.40;99.90;;;;;;4932635;29;20017;-66
2021/05/25 15:01:55;;;;;;;4.15;1.50;;;13.60;99.90;;;;;;4930887;29;20138;-66
2021/05/25 15:04:27;;;;;;;5.55;1.13;;;13.50;99.90;;;;;;4931274;29;20544;-66
2021/05/25 15:06:56;;;;;;;6.63;1.38;;;13.70;99.90;;;;;;4917614;29;20153;-66
2021/05/25 15:09:25;;;;;;;6.15;1.63;;;13.80;99.90;;;;;;4932894;29;20067;-65
2021/05/25 15:11:52;;;;;;;3.42;1.17;;;13.80;99.90;;;;;;4932751;29;20044;-66
2021/05/25 15:14:19;;;;;;;;;;;13.70;99.90;;;;;;4933297;29;20044;-65
2021/05/25 15:16:46;;;;;;;5.05;1.38;;;13.70;99.90;;;;;;4935098;29;19927;-65
2021/05/25 15:19:13;;;;;;;3.30;1.25;;;13.60;99.90;;;;;;4930582;29;20385;-65
2021/05/25 15:21:40;;;;;;;4.13;1.23;;;13.60;99.90;;;;;;4933083;29;20520;-67
2021/05/25 15:24:08;;;;;;;3.80;1.30;;;13.50;99.90;;;;;;4935652;29;20060;-66
2021/05/25 15:26:36;;;;;;;6.07;1.08;;;13.30;99.90;;;;;;4930491;29;20108;-67
2021/05/25 15:29:03;;;;;;;2.25;1.00;;;12.90;99.90;;;;;;4931247;29;20063;-65
2021/05/25 15:31:31;;;;;;;3.03;1.00;;;12.40;99.90;;;;;;4922040;29;20051;-65
2021/05/25 15:33:59;;;;;;;2.83;1.50;;;12.00;99.90;;;;;;4926493;29;20504;-65
2021/05/25 15:36:26;;;;;;;4.15;2.22;;;11.50;99.90;;;;;;4925803;29;20043;-66
2021/05/25 15:38:52;;;;;;;;;;;11.00;99.90;;;;;;4928016;29;20040;-66
2021/05/25 15:41:19;;;;;;;5.72;2.97;;;10.60;99.90;;;;;;4928953;29;20002;-65
2021/05/25 15:43:47;;;;;;;3.47;1.60;;;10.30;99.90;;;;;;4931810;29;20424;-66
2021/05/25 15:46:18;;;;;;;3.40;1.60;;;10.20;99.90;;;;;;4927338;29;20489;-66
2021/05/25 15:48:46;;;;;;;3.38;1.70;;;10.00;99.90;;;;;;4917709;29;20073;-66
2021/05/25 15:51:12;;;;;;;1.08;1.00;;;10.00;99.90;;;;;;4929995;29;20071;-66
2021/05/25 15:53:39;;;;;;;;;;;10.00;99.90;;;;;;4929735;29;20111;-66
2021/05/25 15:56:10;;;;;;;2.42;1.05;;;10.10;99.90;;;;;;4928084;29;20327;-66
2021/05/25 15:58:37;;;;;;;1.25;0.80;;;10.10;99.90;;;;;;4925566;29;20063;-67
2021/05/25 16:01:04;;;;;;;1.85;1.23;;;10.10;99.90;;;;;;4923398;29;20404;-66
2021/05/25 16:03:32;;;;;;;3.63;1.35;;;10.10;99.90;;;;;;4915770;29;20504;-66
2021/05/25 16:05:59;;;;;;;3.00;1.17;;;10.30;99.90;;;;;;4916276;29;20040;-66
2021/05/25 16:08:27;;;;;;;2.88;1.02;;;10.60;99.90;;;;;;4924126;29;20051;-65
2021/05/25 16:10:55;;;;;;;3.78;1.40;;;10.70;99.90;;;;;;4916067;29;20059;-66
2021/05/25 16:13:23;;;;;;;2.53;1.10;;;10.70;99.90;;;;;;4915748;29;20417;-66
2021/05/25 16:15:50;;;;;;;2.08;1.38;;;10.90;99.90;;;;;;4926377;29;20408;-66
2021/05/25 16:18:19;;;;;;;3.00;2.03;;;10.70;99.90;;;;;;4923150;29;20048;-66
2021/05/25 16:20:46;;;;;;;1.70;1.58;;;10.80;99.90;;;;;;4933143;29;20043;-66
2021/05/25 16:23:12;;;;;;;5.00;4.05;;;10.80;99.90;;;;;;4934135;29;20048;-66
2021/05/25 16:25:39;;;;;;;6.60;3.72;;;10.90;99.90;;;;;;4932994;29;20127;-66
2021/05/25 16:28:08;;;;;;;5.95;2.92;;;11.00;99.90;;;;;;4919118;29;20059;-66
2021/05/25 16:30:35;;;;;;;3.78;2.55;;;11.00;99.90;;;;;;4919911;29;20054;-66
2021/05/25 16:33:03;;;;;;;2.70;2.10;;;11.10;99.90;;;;;;4951964;29;20047;-66
2021/05/25 16:35:31;;;;;;;2.85;1.15;;;11.20;99.90;;;;;;4933535;28;20071;-65
2021/05/25 16:37:59;;;;;;;2.47;0.85;;;11.10;99.90;;;;;;4923508;29;20063;-67
2021/05/25 16:40:27;;;;;;;5.13;1.40;;;11.00;99.90;;;;;;4936132;28;20523;-66
2021/05/25 16:42:54;;;;;;;1.25;0.70;;;11.00;99.90;;;;;;4919479;29;20046;-65
2021/05/25 16:45:22;;;;;;;1.60;0.93;;;11.00;99.90;;;;;;4923915;29;20078;-67
2021/05/25 16:47:49;;;;;;;0.98;0.75;;;10.90;99.90;;;;;;4924840;29;20400;-65
2021/05/25 16:50:16;;;;;;;3.00;0.85;;;10.90;99.90;;;;;;4920116;29;20059;-65
2021/05/25 16:52:45;;;;;;;;;;;10.80;99.90;;;;;;4933517;29;20411;-65
2021/05/25 16:55:14;;;;;;;2.15;1.08;;;10.80;99.90;;;;;;4925657;29;19970;-67
2021/05/25 16:57:41;;;;;;;3.80;1.00;;;10.80;99.90;;;;;;4918688;29;20040;-66
2021/05/25 17:00:13;;;;;;;3.53;1.33;;;10.70;99.90;;;;;;4922377;29;20148;-66
2021/05/25 17:02:45;;;;;;;6.68;1.23;;;10.80;99.90;;;;;;4914056;29;20044;-67
2021/05/25 17:05:33;;;;;;;91.72;55.33;;;10.70;99.90;;;;;;4925941;29;20048;-67
2021/05/25 17:08:33;;;;;;;16.20;6.53;;;10.70;99.90;;;;;;4999496;23;20059;-70
2021/05/25 17:11:22;;;;;;;5.03;1.35;;;10.60;99.90;;;;;;4950601;29;20098;-70
2021/05/25 17:14:08;;;;;;;2.45;0.63;;;10.60;99.90;;;;;;4950179;29;20464;-70
2021/05/25 17:19:21;;;;;;;2.15;0.80;;;10.60;99.90;;;;;;4948032;29;20464;-70
2021/05/25 17:21:48;;;;;;;1.75;0.98;;;10.60;99.90;;;;;;4929441;29;20047;-70
2021/05/25 17:24:20;;;;;;;1.65;1.10;;;10.60;99.90;;;;;;4932962;29;20545;-69
2021/05/25 17:26:49;;;;;;;2.70;0.98;;;10.60;99.90;;;;;;4923550;29;20070;-70
2021/05/25 17:29:18;;;;;;;3.95;1.15;;;10.70;99.90;;;;;;4930624;29;20043;-70
2021/05/25 17:31:46;;;;;;;2.92;1.42;;;10.80;99.90;;;;;;4930575;29;20133;-69
2021/05/25 17:34:14;;;;;;;2.33;1.02;;;10.90;99.90;;;;;;4932629;29;20044;-69
2021/05/25 17:36:41;;;;;;;2.83;1.08;;;10.90;99.90;;;;;;4931773;29;20412;-69
2021/05/25 17:39:11;;;;;;;2.33;0.95;;;10.90;99.90;;;;;;4932223;29;20508;-69
2021/05/25 17:41:40;;;;;;;3.85;1.35;;;10.80;99.90;;;;;;4933054;29;20048;-69
2021/05/25 17:44:07;;;;;;;1.25;0.73;;;10.80;99.90;;;;;;4923756;29;20080;-69
2021/05/25 17:46:34;;;;;;;2.78;1.00;;;10.80;99.90;;;;;;4933174;29;20044;-68
2021/05/25 17:49:02;;;;;;;2.67;0.82;;;10.90;99.90;;;;;;4921924;29;20048;-68
2021/05/25 17:51:30;;;;;;;3.42;0.80;;;10.90;99.90;;;;;;4914634;29;20139;-68
2021/05/25 17:53:57;;;;;;;3.88;1.50;;;10.80;99.90;;;;;;4921084;29;20039;-70
2021/05/25 17:56:24;;;;;;;3.28;1.00;;;10.80;99.90;;;;;;4935994;29;20381;-70
2021/05/25 17:58:52;;;;;;;3.05;0.77;;;10.80;99.90;;;;;;4932454;29;20641;-67